sensor_id;sensor_type;location;lat;lon;timestamp;P1;durP1;ratioP1;P2;durP2;ratioP2
11582;SDS011;34299;50.820;4.548;2023-08-24T00:01:30;5.17;;;3.20;;
11582;SDS011;34299;50.820;4.548;2023-08-24T00:03:57;6.53;;;3.03;;
11582;SDS011;34299;50.820;4.548;2023-08-24T00:06:24;4.07;;;3.17;;
11582;SDS011;34299;50.820;4.548;2023-08-24T00:08:52;5.37;;;3.10;;
11582;SDS011;34299;50.820;4.548;2023-08-24T00:11:19;6.20;;;3.20;;
11582;SDS011;34299;50.820;4.548;2023-08-24T00:13:46;4.97;;;3.07;;
11582;SDS011;34299;50.820;4.548;2023-08-24T00:16:16;5.27;;;2.93;;
11582;SDS011;34299;50.820;4.548;2023-08-24T00:18:43;4.40;;;3.37;;
11582;SDS011;34299;50.820;4.548;2023-08-24T00:21:10;4.73;;;3.13;;
11582;SDS011;34299;50.820;4.548;2023-08-24T00:23:42;5.73;;;3.37;;
11582;SDS011;34299;50.820;4.548;2023-08-24T00:26:10;4.63;;;2.67;;
11582;SDS011;34299;50.820;4.548;2023-08-24T00:28:38;4.57;;;3.07;;
11582;SDS011;34299;50.820;4.548;2023-08-24T00:31:05;8.20;;;3.10;;
11582;SDS011;34299;50.820;4.548;2023-08-24T00:33:32;5.77;;;3.50;;
11582;SDS011;34299;50.820;4.548;2023-08-24T00:35:59;4.53;;;3.27;;
11582;SDS011;34299;50.820;4.548;2023-08-24T00:38:27;4.97;;;3.50;;
11582;SDS011;34299;50.820;4.548;2023-08-24T00:40:54;9.17;;;3.93;;
11582;SDS011;34299;50.820;4.548;2023-08-24T00:43:23;6.10;;;3.43;;
11582;SDS011;34299;50.820;4.548;2023-08-24T00:45:50;4.83;;;3.50;;
11582;SDS011;34299;50.820;4.548;2023-08-24T00:48:18;9.13;;;3.70;;
11582;SDS011;34299;50.820;4.548;2023-08-24T00:50:46;4.60;;;3.77;;
11582;SDS011;34299;50.820;4.548;2023-08-24T00:53:13;4.97;;;3.30;;
11582;SDS011;34299;50.820;4.548;2023-08-24T00:55:40;6.07;;;3.63;;
11582;SDS011;34299;50.820;4.548;2023-08-24T00:58:08;6.43;;;4.23;;
11582;SDS011;34299;50.820;4.548;2023-08-24T01:00:37;5.03;;;3.37;;
11582;SDS011;34299;50.820;4.548;2023-08-24T01:03:04;5.53;;;3.50;;
11582;SDS011;34299;50.820;4.548;2023-08-24T01:05:31;7.63;;;3.67;;
11582;SDS011;34299;50.820;4.548;2023-08-24T01:07:59;5.73;;;3.83;;
11582;SDS011;34299;50.820;4.548;2023-08-24T01:10:27;5.73;;;3.50;;
11582;SDS011;34299;50.820;4.548;2023-08-24T01:13:16;5.50;;;3.33;;
11582;SDS011;34299;50.820;4.548;2023-08-24T01:15:55;4.30;;;3.40;;
11582;SDS011;34299;50.820;4.548;2023-08-24T01:18:27;6.00;;;3.80;;
11582;SDS011;34299;50.820;4.548;2023-08-24T01:20:57;7.10;;;3.43;;
11582;SDS011;34299;50.820;4.548;2023-08-24T01:23:28;5.60;;;4.53;;
11582;SDS011;34299;50.820;4.548;2023-08-24T01:26:09;5.57;;;3.77;;
11582;SDS011;34299;50.820;4.548;2023-08-24T01:28:38;5.03;;;3.70;;
11582;SDS011;34299;50.820;4.548;2023-08-24T01:31:06;6.87;;;3.70;;
11582;SDS011;34299;50.820;4.548;2023-08-24T01:33:33;5.10;;;3.60;;
11582;SDS011;34299;50.820;4.548;2023-08-24T01:36:00;6.40;;;3.70;;
11582;SDS011;34299;50.820;4.548;2023-08-24T01:38:28;6.13;;;3.10;;
11582;SDS011;34299;50.820;4.548;2023-08-24T01:40:59;4.37;;;3.20;;
11582;SDS011;34299;50.820;4.548;2023-08-24T01:43:45;5.90;;;3.73;;
11582;SDS011;34299;50.820;4.548;2023-08-24T01:46:16;7.87;;;4.00;;
11582;SDS011;34299;50.820;4.548;2023-08-24T01:48:46;5.53;;;4.00;;
11582;SDS011;34299;50.820;4.548;2023-08-24T01:51:14;6.40;;;4.30;;
11582;SDS011;34299;50.820;4.548;2023-08-24T01:53:42;6.67;;;4.10;;
11582;SDS011;34299;50.820;4.548;2023-08-24T01:56:10;7.40;;;4.20;;
11582;SDS011;34299;50.820;4.548;2023-08-24T01:58:37;7.57;;;5.10;;
11582;SDS011;34299;50.820;4.548;2023-08-24T02:01:06;5.70;;;4.53;;
11582;SDS011;34299;50.820;4.548;2023-08-24T02:03:34;5.47;;;3.83;;
11582;SDS011;34299;50.820;4.548;2023-08-24T02:06:01;6.20;;;4.43;;
11582;SDS011;34299;50.820;4.548;2023-08-24T02:08:30;5.90;;;4.80;;
11582;SDS011;34299;50.820;4.548;2023-08-24T02:10:56;6.10;;;4.60;;
11582;SDS011;34299;50.820;4.548;2023-08-24T02:13:23;6.93;;;4.43;;
11582;SDS011;34299;50.820;4.548;2023-08-24T02:15:50;7.47;;;4.60;;
11582;SDS011;34299;50.820;4.548;2023-08-24T02:18:27;7.07;;;4.33;;
11582;SDS011;34299;50.820;4.548;2023-08-24T02:20:54;6.43;;;4.63;;
11582;SDS011;34299;50.820;4.548;2023-08-24T02:23:21;6.80;;;5.03;;
11582;SDS011;34299;50.820;4.548;2023-08-24T02:25:48;8.87;;;5.63;;
11582;SDS011;34299;50.820;4.548;2023-08-24T02:28:15;7.10;;;4.40;;
11582;SDS011;34299;50.820;4.548;2023-08-24T02:30:42;8.60;;;4.80;;
11582;SDS011;34299;50.820;4.548;2023-08-24T02:33:09;8.70;;;4.43;;
11582;SDS011;34299;50.820;4.548;2023-08-24T02:35:38;4.07;;;3.73;;
11582;SDS011;34299;50.820;4.548;2023-08-24T02:38:05;5.10;;;4.20;;
11582;SDS011;34299;50.820;4.548;2023-08-24T02:40:32;6.00;;;4.27;;
11582;SDS011;34299;50.820;4.548;2023-08-24T02:42:59;6.50;;;4.57;;
11582;SDS011;34299;50.820;4.548;2023-08-24T02:45:25;8.23;;;4.60;;
11582;SDS011;34299;50.820;4.548;2023-08-24T02:47:52;7.60;;;4.70;;
11582;SDS011;34299;50.820;4.548;2023-08-24T02:50:19;6.20;;;4.40;;
11582;SDS011;34299;50.820;4.548;2023-08-24T02:52:48;7.20;;;4.40;;
11582;SDS011;34299;50.820;4.548;2023-08-24T02:55:16;10.80;;;4.63;;
11582;SDS011;34299;50.820;4.548;2023-08-24T02:57:43;11.17;;;5.57;;
11582;SDS011;34299;50.820;4.548;2023-08-24T03:00:10;6.30;;;4.37;;
11582;SDS011;34299;50.820;4.548;2023-08-24T03:02:39;6.07;;;4.60;;
11582;SDS011;34299;50.820;4.548;2023-08-24T03:05:06;5.93;;;4.63;;
11582;SDS011;34299;50.820;4.548;2023-08-24T03:07:33;7.93;;;4.63;;
11582;SDS011;34299;50.820;4.548;2023-08-24T03:10:02;6.83;;;4.57;;
11582;SDS011;34299;50.820;4.548;2023-08-24T03:12:29;7.23;;;4.97;;
11582;SDS011;34299;50.820;4.548;2023-08-24T03:14:56;6.87;;;5.03;;
11582;SDS011;34299;50.820;4.548;2023-08-24T03:17:22;6.53;;;4.53;;
11582;SDS011;34299;50.820;4.548;2023-08-24T03:19:49;8.77;;;5.70;;
11582;SDS011;34299;50.820;4.548;2023-08-24T03:22:16;6.83;;;4.47;;
11582;SDS011;34299;50.820;4.548;2023-08-24T03:24:43;6.70;;;4.97;;
11582;SDS011;34299;50.820;4.548;2023-08-24T03:27:11;8.70;;;5.03;;
11582;SDS011;34299;50.820;4.548;2023-08-24T03:29:38;4.83;;;4.23;;
11582;SDS011;34299;50.820;4.548;2023-08-24T03:32:05;6.50;;;4.17;;
11582;SDS011;34299;50.820;4.548;2023-08-24T03:34:32;7.13;;;4.50;;
11582;SDS011;34299;50.820;4.548;2023-08-24T03:36:59;10.07;;;4.53;;
11582;SDS011;34299;50.820;4.548;2023-08-24T03:39:26;4.30;;;3.90;;
11582;SDS011;34299;50.820;4.548;2023-08-24T03:41:53;5.73;;;4.23;;
11582;SDS011;34299;50.820;4.548;2023-08-24T03:44:21;5.57;;;4.07;;
11582;SDS011;34299;50.820;4.548;2023-08-24T03:46:48;6.10;;;4.90;;
11582;SDS011;34299;50.820;4.548;2023-08-24T03:49:15;5.50;;;4.30;;
11582;SDS011;34299;50.820;4.548;2023-08-24T03:51:42;6.17;;;4.60;;
11582;SDS011;34299;50.820;4.548;2023-08-24T03:54:09;6.73;;;3.93;;
11582;SDS011;34299;50.820;4.548;2023-08-24T03:56:36;5.87;;;4.50;;
11582;SDS011;34299;50.820;4.548;2023-08-24T03:59:03;7.27;;;4.70;;
11582;SDS011;34299;50.820;4.548;2023-08-24T04:01:31;9.17;;;5.03;;
11582;SDS011;34299;50.820;4.548;2023-08-24T04:03:58;8.13;;;5.27;;
11582;SDS011;34299;50.820;4.548;2023-08-24T04:06:25;9.40;;;4.63;;
11582;SDS011;34299;50.820;4.548;2023-08-24T04:08:52;7.73;;;4.13;;
11582;SDS011;34299;50.820;4.548;2023-08-24T04:11:19;5.70;;;4.40;;
11582;SDS011;34299;50.820;4.548;2023-08-24T04:13:45;6.07;;;4.40;;
11582;SDS011;34299;50.820;4.548;2023-08-24T04:16:12;6.23;;;4.03;;
11582;SDS011;34299;50.820;4.548;2023-08-24T04:18:41;8.07;;;4.63;;
11582;SDS011;34299;50.820;4.548;2023-08-24T04:21:08;5.30;;;3.80;;
11582;SDS011;34299;50.820;4.548;2023-08-24T04:23:35;8.23;;;4.10;;
11582;SDS011;34299;50.820;4.548;2023-08-24T04:26:02;6.50;;;4.83;;
11582;SDS011;34299;50.820;4.548;2023-08-24T04:28:30;6.03;;;4.40;;
11582;SDS011;34299;50.820;4.548;2023-08-24T04:30:57;7.57;;;4.40;;
11582;SDS011;34299;50.820;4.548;2023-08-24T04:33:24;5.20;;;4.10;;
11582;SDS011;34299;50.820;4.548;2023-08-24T04:35:52;6.57;;;4.07;;
11582;SDS011;34299;50.820;4.548;2023-08-24T04:38:19;4.50;;;3.70;;
11582;SDS011;34299;50.820;4.548;2023-08-24T04:40:46;6.10;;;5.00;;
11582;SDS011;34299;50.820;4.548;2023-08-24T04:43:15;5.70;;;3.57;;
11582;SDS011;34299;50.820;4.548;2023-08-24T04:45:43;7.10;;;4.37;;
11582;SDS011;34299;50.820;4.548;2023-08-24T04:48:12;7.30;;;4.70;;
11582;SDS011;34299;50.820;4.548;2023-08-24T04:50:38;8.63;;;4.87;;
11582;SDS011;34299;50.820;4.548;2023-08-24T04:53:07;7.40;;;5.03;;
11582;SDS011;34299;50.820;4.548;2023-08-24T04:55:34;6.40;;;5.00;;
11582;SDS011;34299;50.820;4.548;2023-08-24T04:58:01;7.03;;;4.37;;
11582;SDS011;34299;50.820;4.548;2023-08-24T05:00:28;8.57;;;4.90;;
11582;SDS011;34299;50.820;4.548;2023-08-24T05:02:58;7.17;;;4.03;;
11582;SDS011;34299;50.820;4.548;2023-08-24T05:05:24;4.50;;;3.90;;
11582;SDS011;34299;50.820;4.548;2023-08-24T05:07:53;7.07;;;4.47;;
11582;SDS011;34299;50.820;4.548;2023-08-24T05:10:21;8.13;;;4.53;;
11582;SDS011;34299;50.820;4.548;2023-08-24T05:12:48;7.07;;;3.93;;
11582;SDS011;34299;50.820;4.548;2023-08-24T05:15:15;6.43;;;4.70;;
11582;SDS011;34299;50.820;4.548;2023-08-24T05:17:42;8.63;;;4.83;;
11582;SDS011;34299;50.820;4.548;2023-08-24T05:20:09;5.57;;;3.80;;
11582;SDS011;34299;50.820;4.548;2023-08-24T05:22:37;5.80;;;4.33;;
11582;SDS011;34299;50.820;4.548;2023-08-24T05:25:04;8.93;;;4.17;;
11582;SDS011;34299;50.820;4.548;2023-08-24T05:27:33;6.53;;;3.73;;
11582;SDS011;34299;50.820;4.548;2023-08-24T05:30:00;8.33;;;4.57;;
11582;SDS011;34299;50.820;4.548;2023-08-24T05:32:27;4.87;;;4.23;;
11582;SDS011;34299;50.820;4.548;2023-08-24T05:34:54;9.27;;;5.27;;
11582;SDS011;34299;50.820;4.548;2023-08-24T05:37:20;4.90;;;4.30;;
11582;SDS011;34299;50.820;4.548;2023-08-24T05:39:47;5.10;;;3.93;;
11582;SDS011;34299;50.820;4.548;2023-08-24T05:42:14;6.37;;;4.57;;
11582;SDS011;34299;50.820;4.548;2023-08-24T05:44:42;5.47;;;4.63;;
11582;SDS011;34299;50.820;4.548;2023-08-24T05:47:09;5.83;;;4.33;;
11582;SDS011;34299;50.820;4.548;2023-08-24T05:49:36;7.10;;;4.40;;
11582;SDS011;34299;50.820;4.548;2023-08-24T05:52:03;7.27;;;4.57;;
11582;SDS011;34299;50.820;4.548;2023-08-24T05:54:31;7.47;;;4.43;;
11582;SDS011;34299;50.820;4.548;2023-08-24T05:56:58;9.33;;;4.03;;
11582;SDS011;34299;50.820;4.548;2023-08-24T05:59:25;6.37;;;4.50;;
11582;SDS011;34299;50.820;4.548;2023-08-24T06:01:54;8.17;;;4.53;;
11582;SDS011;34299;50.820;4.548;2023-08-24T06:04:21;9.20;;;4.83;;
11582;SDS011;34299;50.820;4.548;2023-08-24T06:06:48;6.73;;;4.60;;
11582;SDS011;34299;50.820;4.548;2023-08-24T06:09:14;5.50;;;4.80;;
11582;SDS011;34299;50.820;4.548;2023-08-24T06:11:41;8.50;;;4.73;;
11582;SDS011;34299;50.820;4.548;2023-08-24T06:14:08;5.90;;;4.77;;
11582;SDS011;34299;50.820;4.548;2023-08-24T06:16:35;5.80;;;4.40;;
11582;SDS011;34299;50.820;4.548;2023-08-24T06:19:03;6.10;;;4.50;;
11582;SDS011;34299;50.820;4.548;2023-08-24T06:21:30;8.10;;;4.53;;
11582;SDS011;34299;50.820;4.548;2023-08-24T06:23:57;6.07;;;4.50;;
11582;SDS011;34299;50.820;4.548;2023-08-24T06:26:26;7.57;;;4.47;;
11582;SDS011;34299;50.820;4.548;2023-08-24T06:28:53;5.83;;;4.30;;
11582;SDS011;34299;50.820;4.548;2023-08-24T06:31:20;6.60;;;4.17;;
11582;SDS011;34299;50.820;4.548;2023-08-24T06:33:48;3.97;;;3.57;;
11582;SDS011;34299;50.820;4.548;2023-08-24T06:36:17;7.30;;;5.63;;
11582;SDS011;34299;50.820;4.548;2023-08-24T06:38:44;7.00;;;3.77;;
11582;SDS011;34299;50.820;4.548;2023-08-24T06:41:11;3.97;;;3.17;;
11582;SDS011;34299;50.820;4.548;2023-08-24T06:43:38;12.30;;;5.23;;
11582;SDS011;34299;50.820;4.548;2023-08-24T06:46:05;6.27;;;4.00;;
11582;SDS011;34299;50.820;4.548;2023-08-24T06:48:33;6.37;;;3.00;;
11582;SDS011;34299;50.820;4.548;2023-08-24T06:51:00;5.23;;;3.17;;
11582;SDS011;34299;50.820;4.548;2023-08-24T06:53:28;5.13;;;3.30;;
11582;SDS011;34299;50.820;4.548;2023-08-24T06:55:55;7.03;;;3.30;;
11582;SDS011;34299;50.820;4.548;2023-08-24T06:58:23;6.73;;;3.70;;
11582;SDS011;34299;50.820;4.548;2023-08-24T07:00:50;4.50;;;2.90;;
11582;SDS011;34299;50.820;4.548;2023-08-24T07:03:17;6.13;;;2.90;;
11582;SDS011;34299;50.820;4.548;2023-08-24T07:05:44;5.67;;;3.70;;
11582;SDS011;34299;50.820;4.548;2023-08-24T07:08:11;9.93;;;3.30;;
11582;SDS011;34299;50.820;4.548;2023-08-24T07:10:39;3.93;;;2.90;;
11582;SDS011;34299;50.820;4.548;2023-08-24T07:13:07;6.87;;;2.70;;
11582;SDS011;34299;50.820;4.548;2023-08-24T07:15:34;4.40;;;3.00;;
11582;SDS011;34299;50.820;4.548;2023-08-24T07:18:02;4.03;;;2.70;;
11582;SDS011;34299;50.820;4.548;2023-08-24T07:20:30;6.27;;;3.20;;
11582;SDS011;34299;50.820;4.548;2023-08-24T07:22:58;5.60;;;3.23;;
11582;SDS011;34299;50.820;4.548;2023-08-24T07:25:25;4.53;;;3.03;;
11582;SDS011;34299;50.820;4.548;2023-08-24T07:27:54;6.03;;;3.30;;
11582;SDS011;34299;50.820;4.548;2023-08-24T07:30:23;4.90;;;3.07;;
11582;SDS011;34299;50.820;4.548;2023-08-24T07:32:51;6.33;;;3.17;;
11582;SDS011;34299;50.820;4.548;2023-08-24T07:35:19;7.00;;;3.50;;
11582;SDS011;34299;50.820;4.548;2023-08-24T07:37:46;6.20;;;3.00;;
11582;SDS011;34299;50.820;4.548;2023-08-24T07:40:13;6.60;;;2.93;;
11582;SDS011;34299;50.820;4.548;2023-08-24T07:42:44;3.77;;;2.77;;
11582;SDS011;34299;50.820;4.548;2023-08-24T07:45:13;4.93;;;2.80;;
11582;SDS011;34299;50.820;4.548;2023-08-24T07:47:40;6.47;;;2.80;;
11582;SDS011;34299;50.820;4.548;2023-08-24T07:50:07;3.87;;;2.73;;
11582;SDS011;34299;50.820;4.548;2023-08-24T07:52:35;3.23;;;2.40;;
11582;SDS011;34299;50.820;4.548;2023-08-24T07:55:03;3.47;;;2.40;;
11582;SDS011;34299;50.820;4.548;2023-08-24T07:57:30;6.87;;;2.90;;
11582;SDS011;34299;50.820;4.548;2023-08-24T07:59:57;3.97;;;2.80;;
11582;SDS011;34299;50.820;4.548;2023-08-24T08:02:25;4.13;;;3.03;;
11582;SDS011;34299;50.820;4.548;2023-08-24T08:04:55;4.10;;;2.73;;
11582;SDS011;34299;50.820;4.548;2023-08-24T08:07:23;6.23;;;2.77;;
11582;SDS011;34299;50.820;4.548;2023-08-24T08:09:50;3.33;;;2.67;;
11582;SDS011;34299;50.820;4.548;2023-08-24T08:12:17;5.90;;;2.93;;
11582;SDS011;34299;50.820;4.548;2023-08-24T08:14:44;4.87;;;2.57;;
11582;SDS011;34299;50.820;4.548;2023-08-24T08:17:11;4.17;;;3.00;;
11582;SDS011;34299;50.820;4.548;2023-08-24T08:19:39;4.20;;;2.63;;
11582;SDS011;34299;50.820;4.548;2023-08-24T08:22:06;4.90;;;2.73;;
11582;SDS011;34299;50.820;4.548;2023-08-24T08:24:33;3.07;;;2.50;;
11582;SDS011;34299;50.820;4.548;2023-08-24T08:27:00;6.57;;;3.37;;
11582;SDS011;34299;50.820;4.548;2023-08-24T08:29:27;3.33;;;2.60;;
11582;SDS011;34299;50.820;4.548;2023-08-24T08:31:54;6.37;;;2.70;;
11582;SDS011;34299;50.820;4.548;2023-08-24T08:34:21;5.13;;;2.87;;
11582;SDS011;34299;50.820;4.548;2023-08-24T08:36:50;6.53;;;3.17;;
11582;SDS011;34299;50.820;4.548;2023-08-24T08:39:18;4.60;;;2.87;;
11582;SDS011;34299;50.820;4.548;2023-08-24T08:41:45;3.90;;;2.47;;
11582;SDS011;34299;50.820;4.548;2023-08-24T08:44:13;4.33;;;3.37;;
11582;SDS011;34299;50.820;4.548;2023-08-24T08:46:41;7.20;;;2.70;;
11582;SDS011;34299;50.820;4.548;2023-08-24T08:49:09;4.13;;;2.90;;
11582;SDS011;34299;50.820;4.548;2023-08-24T08:51:40;2.90;;;2.67;;
11582;SDS011;34299;50.820;4.548;2023-08-24T08:54:09;5.77;;;2.67;;
11582;SDS011;34299;50.820;4.548;2023-08-24T08:56:37;4.33;;;2.90;;
11582;SDS011;34299;50.820;4.548;2023-08-24T08:59:05;4.57;;;2.67;;
11582;SDS011;34299;50.820;4.548;2023-08-24T09:01:34;3.63;;;2.40;;
11582;SDS011;34299;50.820;4.548;2023-08-24T09:04:02;3.77;;;2.33;;
11582;SDS011;34299;50.820;4.548;2023-08-24T09:06:29;4.77;;;2.70;;
11582;SDS011;34299;50.820;4.548;2023-08-24T09:08:57;3.77;;;2.70;;
11582;SDS011;34299;50.820;4.548;2023-08-24T09:11:26;3.10;;;2.60;;
11582;SDS011;34299;50.820;4.548;2023-08-24T09:13:53;4.07;;;2.63;;
11582;SDS011;34299;50.820;4.548;2023-08-24T09:16:20;4.63;;;2.57;;
11582;SDS011;34299;50.820;4.548;2023-08-24T09:18:47;5.43;;;2.80;;
11582;SDS011;34299;50.820;4.548;2023-08-24T09:21:14;3.63;;;2.70;;
11582;SDS011;34299;50.820;4.548;2023-08-24T09:23:43;4.53;;;2.70;;
11582;SDS011;34299;50.820;4.548;2023-08-24T09:26:11;4.07;;;2.60;;
11582;SDS011;34299;50.820;4.548;2023-08-24T09:28:39;6.67;;;2.93;;
11582;SDS011;34299;50.820;4.548;2023-08-24T09:31:09;5.77;;;3.00;;
11582;SDS011;34299;50.820;4.548;2023-08-24T09:33:37;6.13;;;2.90;;
11582;SDS011;34299;50.820;4.548;2023-08-24T09:36:05;5.73;;;2.97;;
11582;SDS011;34299;50.820;4.548;2023-08-24T09:38:32;5.07;;;3.03;;
11582;SDS011;34299;50.820;4.548;2023-08-24T09:41:01;4.47;;;3.00;;
11582;SDS011;34299;50.820;4.548;2023-08-24T09:43:29;5.23;;;2.70;;
11582;SDS011;34299;50.820;4.548;2023-08-24T09:45:58;4.93;;;2.30;;
11582;SDS011;34299;50.820;4.548;2023-08-24T09:48:25;8.03;;;3.40;;
11582;SDS011;34299;50.820;4.548;2023-08-24T09:50:54;5.33;;;3.33;;
11582;SDS011;34299;50.820;4.548;2023-08-24T09:53:23;5.95;;;4.90;;
11582;SDS011;34299;50.820;4.548;2023-08-24T09:55:53;6.00;;;4.10;;
11582;SDS011;34299;50.820;4.548;2023-08-24T09:58:21;8.13;;;4.33;;
11582;SDS011;34299;50.820;4.548;2023-08-24T10:00:48;7.30;;;4.60;;
11582;SDS011;34299;50.820;4.548;2023-08-24T10:03:17;8.17;;;5.57;;
11582;SDS011;34299;50.820;4.548;2023-08-24T10:05:47;8.23;;;4.83;;
11582;SDS011;34299;50.820;4.548;2023-08-24T10:08:17;7.37;;;4.33;;
11582;SDS011;34299;50.820;4.548;2023-08-24T10:10:47;9.17;;;5.27;;
11582;SDS011;34299;50.820;4.548;2023-08-24T10:13:22;9.13;;;5.03;;
11582;SDS011;34299;50.820;4.548;2023-08-24T10:15:56;8.80;;;5.23;;
11582;SDS011;34299;50.820;4.548;2023-08-24T10:18:25;9.73;;;4.87;;
11582;SDS011;34299;50.820;4.548;2023-08-24T10:20:52;5.07;;;4.03;;
11582;SDS011;34299;50.820;4.548;2023-08-24T10:23:20;7.50;;;4.70;;
11582;SDS011;34299;50.820;4.548;2023-08-24T10:25:48;8.10;;;4.80;;
11582;SDS011;34299;50.820;4.548;2023-08-24T10:28:17;8.43;;;4.77;;
11582;SDS011;34299;50.820;4.548;2023-08-24T10:30:46;7.40;;;4.43;;
11582;SDS011;34299;50.820;4.548;2023-08-24T10:33:14;6.50;;;4.03;;
11582;SDS011;34299;50.820;4.548;2023-08-24T10:35:43;5.20;;;4.40;;
11582;SDS011;34299;50.820;4.548;2023-08-24T10:38:22;8.03;;;4.60;;
11582;SDS011;34299;50.820;4.548;2023-08-24T10:40:50;7.13;;;4.97;;
11582;SDS011;34299;50.820;4.548;2023-08-24T10:43:17;7.93;;;5.60;;
11582;SDS011;34299;50.820;4.548;2023-08-24T10:45:54;7.50;;;5.00;;
11582;SDS011;34299;50.820;4.548;2023-08-24T10:48:25;7.63;;;5.50;;
11582;SDS011;34299;50.820;4.548;2023-08-24T10:53:48;7.57;;;5.23;;
11582;SDS011;34299;50.820;4.548;2023-08-24T10:56:18;6.27;;;5.60;;
11582;SDS011;34299;50.820;4.548;2023-08-24T10:58:46;6.27;;;5.63;;
11582;SDS011;34299;50.820;4.548;2023-08-24T11:01:14;7.30;;;5.70;;
11582;SDS011;34299;50.820;4.548;2023-08-24T11:03:46;10.13;;;6.00;;
11582;SDS011;34299;50.820;4.548;2023-08-24T11:06:21;6.50;;;5.63;;
11582;SDS011;34299;50.820;4.548;2023-08-24T11:08:57;6.53;;;4.93;;
11582;SDS011;34299;50.820;4.548;2023-08-24T11:11:34;9.07;;;5.37;;
11582;SDS011;34299;50.820;4.548;2023-08-24T11:14:14;8.00;;;5.20;;
11582;SDS011;34299;50.820;4.548;2023-08-24T11:16:42;7.80;;;5.50;;
11582;SDS011;34299;50.820;4.548;2023-08-24T11:19:10;7.00;;;5.43;;
11582;SDS011;34299;50.820;4.548;2023-08-24T11:21:39;10.30;;;5.40;;
11582;SDS011;34299;50.820;4.548;2023-08-24T11:24:07;9.67;;;5.77;;
11582;SDS011;34299;50.820;4.548;2023-08-24T11:26:39;7.80;;;5.67;;
11582;SDS011;34299;50.820;4.548;2023-08-24T11:29:07;8.57;;;5.47;;
11582;SDS011;34299;50.820;4.548;2023-08-24T11:31:34;6.90;;;5.57;;
11582;SDS011;34299;50.820;4.548;2023-08-24T11:34:01;7.60;;;5.87;;
11582;SDS011;34299;50.820;4.548;2023-08-24T11:36:29;7.27;;;5.73;;
11582;SDS011;34299;50.820;4.548;2023-08-24T11:38:58;7.63;;;5.40;;
11582;SDS011;34299;50.820;4.548;2023-08-24T11:41:25;7.60;;;5.50;;
11582;SDS011;34299;50.820;4.548;2023-08-24T11:43:59;8.23;;;5.17;;
11582;SDS011;34299;50.820;4.548;2023-08-24T11:46:28;5.90;;;5.30;;
11582;SDS011;34299;50.820;4.548;2023-08-24T11:48:56;9.43;;;5.90;;
11582;SDS011;34299;50.820;4.548;2023-08-24T11:51:24;7.23;;;5.23;;
11582;SDS011;34299;50.820;4.548;2023-08-24T11:53:51;7.30;;;4.67;;
11582;SDS011;34299;50.820;4.548;2023-08-24T11:56:19;7.00;;;4.90;;
11582;SDS011;34299;50.820;4.548;2023-08-24T11:58:47;5.57;;;4.80;;
11582;SDS011;34299;50.820;4.548;2023-08-24T12:01:16;8.57;;;5.80;;
11582;SDS011;34299;50.820;4.548;2023-08-24T12:03:43;6.13;;;5.53;;
11582;SDS011;34299;50.820;4.548;2023-08-24T12:06:10;6.40;;;5.33;;
11582;SDS011;34299;50.820;4.548;2023-08-24T12:08:39;7.73;;;5.30;;
11582;SDS011;34299;50.820;4.548;2023-08-24T12:11:10;7.20;;;5.20;;
11582;SDS011;34299;50.820;4.548;2023-08-24T12:13:43;6.40;;;5.20;;
11582;SDS011;34299;50.820;4.548;2023-08-24T12:16:12;5.63;;;5.03;;
11582;SDS011;34299;50.820;4.548;2023-08-24T12:18:51;6.30;;;5.67;;
11582;SDS011;34299;50.820;4.548;2023-08-24T12:21:19;5.63;;;5.00;;
11582;SDS011;34299;50.820;4.548;2023-08-24T12:23:55;8.43;;;5.13;;
11582;SDS011;34299;50.820;4.548;2023-08-24T12:26:23;7.23;;;4.53;;
11582;SDS011;34299;50.820;4.548;2023-08-24T12:28:51;8.30;;;5.17;;
11582;SDS011;34299;50.820;4.548;2023-08-24T12:31:19;4.90;;;4.40;;
11582;SDS011;34299;50.820;4.548;2023-08-24T12:33:57;6.80;;;5.47;;
11582;SDS011;34299;50.820;4.548;2023-08-24T12:36:25;8.17;;;4.57;;
11582;SDS011;34299;50.820;4.548;2023-08-24T12:38:52;7.70;;;5.17;;
11582;SDS011;34299;50.820;4.548;2023-08-24T12:41:19;6.00;;;4.77;;
11582;SDS011;34299;50.820;4.548;2023-08-24T12:43:46;7.47;;;4.93;;
11582;SDS011;34299;50.820;4.548;2023-08-24T12:46:15;7.83;;;5.23;;
11582;SDS011;34299;50.820;4.548;2023-08-24T12:48:42;5.97;;;4.47;;
11582;SDS011;34299;50.820;4.548;2023-08-24T12:51:09;7.23;;;5.57;;
11582;SDS011;34299;50.820;4.548;2023-08-24T12:53:36;6.13;;;4.43;;
11582;SDS011;34299;50.820;4.548;2023-08-24T12:56:03;11.10;;;5.37;;
11582;SDS011;34299;50.820;4.548;2023-08-24T12:58:30;8.00;;;4.93;;
11582;SDS011;34299;50.820;4.548;2023-08-24T13:00:57;8.03;;;4.23;;
11582;SDS011;34299;50.820;4.548;2023-08-24T13:03:25;4.57;;;3.97;;
11582;SDS011;34299;50.820;4.548;2023-08-24T13:05:52;6.90;;;4.50;;
11582;SDS011;34299;50.820;4.548;2023-08-24T13:08:19;5.47;;;4.03;;
11582;SDS011;34299;50.820;4.548;2023-08-24T13:10:46;6.47;;;4.20;;
11582;SDS011;34299;50.820;4.548;2023-08-24T13:13:13;5.43;;;3.60;;
11582;SDS011;34299;50.820;4.548;2023-08-24T13:15:39;4.40;;;3.80;;
11582;SDS011;34299;50.820;4.548;2023-08-24T13:18:06;4.53;;;3.37;;
11582;SDS011;34299;50.820;4.548;2023-08-24T13:20:35;4.03;;;2.80;;
11582;SDS011;34299;50.820;4.548;2023-08-24T13:23:02;3.27;;;2.60;;
11582;SDS011;34299;50.820;4.548;2023-08-24T13:25:29;3.90;;;3.20;;
11582;SDS011;34299;50.820;4.548;2023-08-24T13:27:56;6.23;;;2.87;;
11582;SDS011;34299;50.820;4.548;2023-08-24T13:30:23;4.50;;;2.93;;
11582;SDS011;34299;50.820;4.548;2023-08-24T13:32:50;4.43;;;3.30;;
11582;SDS011;34299;50.820;4.548;2023-08-24T13:35:17;3.77;;;2.53;;
11582;SDS011;34299;50.820;4.548;2023-08-24T13:37:45;3.97;;;2.57;;
11582;SDS011;34299;50.820;4.548;2023-08-24T13:40:13;2.13;;;1.93;;
11582;SDS011;34299;50.820;4.548;2023-08-24T13:42:40;5.03;;;2.60;;
11582;SDS011;34299;50.820;4.548;2023-08-24T13:45:07;4.60;;;2.20;;
11582;SDS011;34299;50.820;4.548;2023-08-24T13:47:34;3.67;;;2.40;;
11582;SDS011;34299;50.820;4.548;2023-08-24T13:50:02;3.57;;;2.63;;
11582;SDS011;34299;50.820;4.548;2023-08-24T13:52:29;3.03;;;2.20;;
11582;SDS011;34299;50.820;4.548;2023-08-24T13:54:57;2.80;;;2.40;;
11582;SDS011;34299;50.820;4.548;2023-08-24T13:57:28;2.90;;;2.20;;
11582;SDS011;34299;50.820;4.548;2023-08-24T13:59:55;2.27;;;2.07;;
11582;SDS011;34299;50.820;4.548;2023-08-24T14:02:22;3.57;;;1.80;;
11582;SDS011;34299;50.820;4.548;2023-08-24T14:04:51;2.73;;;2.03;;
11582;SDS011;34299;50.820;4.548;2023-08-24T14:07:18;5.60;;;2.63;;
11582;SDS011;34299;50.820;4.548;2023-08-24T14:09:46;3.93;;;2.20;;
11582;SDS011;34299;50.820;4.548;2023-08-24T14:12:14;5.20;;;2.13;;
11582;SDS011;34299;50.820;4.548;2023-08-24T14:14:41;2.80;;;2.50;;
11582;SDS011;34299;50.820;4.548;2023-08-24T14:17:08;2.77;;;1.97;;
11582;SDS011;34299;50.820;4.548;2023-08-24T14:19:35;3.10;;;1.70;;
11582;SDS011;34299;50.820;4.548;2023-08-24T14:22:02;5.30;;;2.40;;
11582;SDS011;34299;50.820;4.548;2023-08-24T14:24:28;4.23;;;1.80;;
11582;SDS011;34299;50.820;4.548;2023-08-24T14:26:55;3.40;;;2.30;;
11582;SDS011;34299;50.820;4.548;2023-08-24T14:29:24;3.60;;;2.27;;
11582;SDS011;34299;50.820;4.548;2023-08-24T14:31:51;4.30;;;2.13;;
11582;SDS011;34299;50.820;4.548;2023-08-24T14:34:18;6.20;;;2.27;;
11582;SDS011;34299;50.820;4.548;2023-08-24T14:36:44;3.73;;;2.30;;
11582;SDS011;34299;50.820;4.548;2023-08-24T14:39:12;3.47;;;1.90;;
11582;SDS011;34299;50.820;4.548;2023-08-24T14:41:39;4.27;;;2.37;;
11582;SDS011;34299;50.820;4.548;2023-08-24T14:44:06;3.47;;;2.07;;
11582;SDS011;34299;50.820;4.548;2023-08-24T14:46:35;4.63;;;2.03;;
11582;SDS011;34299;50.820;4.548;2023-08-24T14:49:03;1.73;;;1.63;;
11582;SDS011;34299;50.820;4.548;2023-08-24T14:51:30;3.90;;;1.93;;
11582;SDS011;34299;50.820;4.548;2023-08-24T14:53:57;3.27;;;2.10;;
11582;SDS011;34299;50.820;4.548;2023-08-24T14:56:24;4.00;;;1.63;;